Time;durP1;ratioP1;P1;durP2;ratioP2;P2;SDS_P1;SDS_P2;PMS_P1;PMS_P2;Temp;Humidity;BMP_temperature;BMP_pressure;BME280_temperature;BME280_humidity;BME280_pressure;Samples;Min_cycle;Max_cycle;Signal;HPM_P1;HPM_P2
2022/11/04 00:01:33;;;;;;;3.97;2.67;;;9.30;97.30;;;;;;4998151;28;20431;-84
2022/11/04 00:03:59;;;;;;;5.17;3.03;;;9.20;97.30;;;;;;5016206;28;20424;-83
2022/11/04 00:06:25;;;;;;;6.77;2.50;;;9.00;97.30;;;;;;5014157;28;20475;-85
2022/11/04 00:08:52;;;;;;;2.60;2.40;;;8.90;97.30;;;;;;4997280;28;20235;-83
2022/11/04 00:14:03;;;;;;;10.30;3.40;;;8.80;97.30;;;;;;5015205;28;20578;-84
2022/11/04 00:19:13;;;;;;;5.73;4.57;;;8.70;97.30;;;;;;5015658;28;20442;-82
2022/11/04 00:29:56;;;;;;;2.30;2.10;;;8.70;97.30;;;;;;5015162;28;20407;-84
2022/11/04 00:35:07;;;;;;;7.20;3.40;;;8.70;97.30;;;;;;5014761;28;21147;-83
2022/11/04 00:37:37;;;;;;;4.23;3.10;;;8.70;97.30;;;;;;4996994;28;20427;-83
2022/11/04 00:40:04;;;;;;;5.57;4.40;;;8.70;97.30;;;;;;5014713;28;20551;-83
2022/11/04 00:42:29;;;;;;;9.63;3.33;;;8.70;97.30;;;;;;4996920;28;20446;-83
2022/11/04 00:44:55;;;;;;;3.70;2.77;;;8.70;97.30;;;;;;5013466;28;20459;-83
2022/11/04 00:47:20;;;;;;;9.90;5.57;;;8.70;97.30;;;;;;5013454;28;20200;-82
2022/11/04 00:49:46;;;;;;;7.33;4.70;;;8.70;97.30;;;;;;5013105;28;20223;-83
2022/11/04 00:52:11;;;;;;;7.27;3.83;;;8.80;97.30;;;;;;4996830;28;20224;-83
2022/11/04 00:54:37;;;;;;;3.03;2.70;;;8.80;97.30;;;;;;4997195;28;20201;-82
2022/11/04 00:57:02;;;;;;;5.53;3.80;;;8.90;97.30;;;;;;5013630;28;20212;-83
2022/11/04 00:59:28;;;;;;;5.63;3.10;;;8.90;97.30;;;;;;4997141;28;20181;-84
2022/11/04 01:01:54;;;;;;;9.50;3.00;;;9.00;97.30;;;;;;4996771;28;20185;-84
2022/11/04 01:04:20;;;;;;;5.10;3.40;;;9.00;97.30;;;;;;4996529;28;20209;-83
2022/11/04 01:06:45;;;;;;;4.70;3.37;;;9.00;97.30;;;;;;4996541;28;21145;-82
2022/11/04 01:09:12;;;;;;;5.83;4.00;;;9.00;97.30;;;;;;4996649;28;20284;-83
2022/11/04 01:11:38;;;;;;;3.37;3.17;;;9.10;97.30;;;;;;4996901;28;20173;-83
2022/11/04 01:14:04;;;;;;;2.60;2.30;;;9.10;97.30;;;;;;4996654;28;20497;-82
2022/11/04 01:16:30;;;;;;;4.20;3.40;;;9.10;97.30;;;;;;4997114;28;20185;-83
2022/11/04 01:18:56;;;;;;;3.53;3.00;;;9.20;97.30;;;;;;5014930;28;20420;-83
2022/11/04 01:21:22;;;;;;;2.60;2.37;;;9.30;97.30;;;;;;4997520;28;20218;-83
2022/11/04 01:23:47;;;;;;;8.63;5.17;;;9.30;97.30;;;;;;4996457;28;20755;-82
2022/11/04 01:26:19;;;;;;;2.30;1.40;;;9.40;97.30;;;;;;4997264;28;20209;-82
2022/11/04 01:28:45;;;;;;;7.40;4.47;;;9.40;97.30;;;;;;4998465;28;20174;-81
2022/11/04 01:31:14;;;;;;;6.90;3.37;;;9.50;97.30;;;;;;4996813;28;20455;-82
2022/11/04 01:33:40;;;;;;;4.37;3.33;;;9.50;97.30;;;;;;4997203;28;20458;-81
2022/11/04 01:36:07;;;;;;;5.17;4.87;;;9.50;97.30;;;;;;5014807;28;20895;-81
2022/11/04 01:38:33;;;;;;;3.97;2.90;;;9.50;97.30;;;;;;5014499;28;20415;-81
2022/11/04 01:41:00;;;;;;;3.60;2.53;;;9.50;97.30;;;;;;4996574;28;20989;-82
2022/11/04 01:43:47;;;;;;;6.40;3.13;;;9.50;97.30;;;;;;4996853;28;20419;-82
2022/11/04 01:46:36;;;;;;;2.67;2.47;;;9.50;97.30;;;;;;4996394;28;20525;-82
2022/11/04 01:49:21;;;;;;;11.10;2.77;;;9.40;97.30;;;;;;4996151;28;20440;-82
2022/11/04 01:51:48;;;;;;;4.60;2.80;;;9.40;97.30;;;;;;5014194;28;20384;-82
2022/11/04 01:54:20;;;;;;;7.50;5.30;;;9.40;97.30;;;;;;5006338;28;20515;-81
2022/11/04 01:56:46;;;;;;;1.80;1.70;;;9.30;97.30;;;;;;4976165;28;20423;-82
2022/11/04 01:59:21;;;;;;;3.90;3.33;;;9.30;97.30;;;;;;4976531;28;20409;-82
2022/11/04 02:01:47;;;;;;;19.43;6.00;;;9.30;97.30;;;;;;4976476;28;20955;-82
2022/11/04 02:04:26;;;;;;;3.33;2.60;;;9.30;97.30;;;;;;4976456;28;20475;-82
2022/11/04 02:06:54;;;;;;;5.40;3.93;;;9.30;97.30;;;;;;4976423;28;20578;-82
2022/11/04 02:09:22;;;;;;;7.07;3.07;;;9.40;97.30;;;;;;4976453;28;20416;-81
2022/11/04 02:14:33;;;;;;;1.73;1.70;;;9.40;97.30;;;;;;4994021;28;20994;-81
2022/11/04 02:17:05;;;;;;;3.77;2.90;;;9.50;97.30;;;;;;4976330;28;20433;-82
2022/11/04 02:20:03;;;;;;;2.73;2.30;;;9.50;97.30;;;;;;4993781;28;20419;-81
2022/11/04 02:22:47;;;;;;;3.37;2.63;;;9.50;97.30;;;;;;4994326;28;20402;-82
2022/11/04 02:25:27;;;;;;;3.43;3.23;;;9.60;97.30;;;;;;4993865;28;20555;-82
2022/11/04 02:28:20;;;;;;;2.87;2.07;;;9.50;97.30;;;;;;4994044;28;20475;-80
2022/11/04 02:31:15;;;;;;;10.30;2.57;;;9.50;97.30;;;;;;4993485;28;20405;-81
2022/11/04 02:34:02;;;;;;;2.73;1.63;;;9.50;97.30;;;;;;4993700;28;20441;-82
2022/11/04 02:36:39;;;;;;;5.60;3.43;;;9.50;97.30;;;;;;4993739;28;20408;-81
2022/11/04 02:39:17;;;;;;;9.50;2.40;;;9.50;97.30;;;;;;4976408;28;20415;-81
2022/11/04 02:42:03;;;;;;;3.20;3.00;;;9.50;97.30;;;;;;4975490;28;20408;-82
2022/11/04 02:44:34;;;;;;;3.73;2.40;;;9.50;97.30;;;;;;5008667;28;20440;-82
2022/11/04 02:47:05;;;;;;;4.50;2.60;;;9.50;97.30;;;;;;4976067;28;20483;-82
2022/11/04 02:49:30;;;;;;;3.00;2.77;;;9.40;97.30;;;;;;4976813;28;20503;-80
2022/11/04 02:52:14;;;;;;;5.00;2.40;;;9.50;97.30;;;;;;4976581;28;20463;-82
2022/11/04 02:54:52;;;;;;;2.87;2.67;;;9.40;97.30;;;;;;4976463;28;20202;-82
2022/11/04 02:57:24;;;;;;;6.70;3.70;;;9.40;97.30;;;;;;4976762;28;20420;-82
2022/11/04 03:00:05;;;;;;;4.93;2.50;;;9.40;97.30;;;;;;4995437;28;20751;-82
2022/11/04 03:02:38;;;;;;;6.50;4.00;;;9.50;97.30;;;;;;4979835;28;20421;-81
2022/11/04 03:05:07;;;;;;;2.90;2.60;;;9.50;97.30;;;;;;5011519;28;20472;-82
2022/11/04 03:07:39;;;;;;;2.07;1.93;;;9.60;97.30;;;;;;4979564;28;20440;-82
2022/11/04 03:10:21;;;;;;;3.87;2.73;;;9.80;97.30;;;;;;4996812;28;20405;-82
2022/11/04 03:13:21;;;;;;;2.93;2.73;;;9.90;97.30;;;;;;4996344;28;20455;-82
2022/11/04 03:15:52;;;;;;;2.73;2.53;;;10.10;97.30;;;;;;4969058;28;20436;-82
2022/11/04 03:18:32;;;;;;;3.43;2.60;;;10.20;97.30;;;;;;4979753;28;20432;-81
2022/11/04 03:21:01;;;;;;;7.47;4.73;;;10.20;97.30;;;;;;5012633;28;20412;-82
2022/11/04 03:23:27;;;;;;;2.47;2.27;;;10.40;97.30;;;;;;4996800;28;20503;-83
2022/11/04 03:26:00;;;;;;;2.73;2.33;;;10.50;97.30;;;;;;5011614;28;20615;-82
2022/11/04 03:28:52;;;;;;;2.77;1.73;;;10.50;97.30;;;;;;4978732;28;20416;-82
2022/11/04 03:31:32;;;;;;;11.60;3.90;;;10.50;97.30;;;;;;4996541;28;20770;-82
2022/11/04 03:33:57;;;;;;;2.70;2.50;;;10.60;97.30;;;;;;5011289;28;20448;-82
2022/11/04 03:36:23;;;;;;;2.70;1.73;;;10.60;97.30;;;;;;4978393;28;20436;-82
2022/11/04 03:38:51;;;;;;;5.23;3.10;;;10.60;97.30;;;;;;4978902;28;20182;-82
2022/11/04 03:41:55;;;;;;;1.87;1.77;;;10.60;97.30;;;;;;4978881;28;20193;-82
2022/11/04 03:44:22;;;;;;;3.13;3.00;;;10.60;97.30;;;;;;4919885;29;20450;-82
2022/11/04 03:46:48;;;;;;;3.13;1.73;;;10.70;97.30;;;;;;4966694;28;20465;-82
2022/11/04 03:49:15;;;;;;;2.63;1.80;;;10.70;97.30;;;;;;4978531;28;21002;-83
2022/11/04 03:51:40;;;;;;;3.53;2.70;;;10.70;97.30;;;;;;4978331;28;20424;-81
2022/11/04 03:54:06;;;;;;;3.43;1.73;;;10.80;97.30;;;;;;4978119;28;20531;-82
2022/11/04 03:57:01;;;;;;;3.10;2.47;;;10.80;97.30;;;;;;4995645;28;20174;-82
2022/11/04 03:59:38;;;;;;;4.83;2.60;;;10.80;97.30;;;;;;4978062;28;20523;-83
2022/11/04 04:02:19;;;;;;;1.73;1.63;;;10.80;97.30;;;;;;4978197;28;20979;-83
2022/11/04 04:04:55;;;;;;;3.93;2.43;;;10.80;97.30;;;;;;4977539;28;20488;-83
2022/11/04 04:07:31;;;;;;;3.77;2.13;;;10.80;97.30;;;;;;4977634;28;20452;-82
2022/11/04 04:10:37;;;;;;;6.07;3.20;;;10.90;97.30;;;;;;4977881;28;20436;-82
2022/11/04 04:12:56;;;;;;;2.37;2.17;;;10.90;97.30;;;;;;4994388;28;20421;-82
2022/11/04 04:15:28;;;;;;;1.93;1.37;;;11.00;97.30;;;;;;4977927;28;20444;-84
2022/11/04 04:17:57;;;;;;;3.60;1.93;;;11.00;97.30;;;;;;4977545;28;20410;-82
2022/11/04 04:20:27;;;;;;;2.70;2.60;;;11.00;97.30;;;;;;4977736;28;20416;-83
2022/11/04 04:23:00;;;;;;;7.40;3.10;;;10.90;97.30;;;;;;4977617;28;20421;-82
2022/11/04 04:28:15;;;;;;;2.30;2.10;;;11.00;97.30;;;;;;4994952;28;20851;-82
2022/11/04 04:30:42;;;;;;;4.37;3.33;;;11.00;97.30;;;;;;4994809;28;20432;-83
2022/11/04 04:33:11;;;;;;;3.90;2.40;;;11.00;97.30;;;;;;4977099;28;20908;-82
2022/11/04 04:35:48;;;;;;;8.93;3.20;;;11.00;97.30;;;;;;4977140;28;20437;-83
2022/11/04 04:46:48;;;;;;;1.93;1.90;;;11.00;97.30;;;;;;4994360;28;20491;-82
2022/11/04 04:49:13;;;;;;;3.20;3.00;;;11.00;97.30;;;;;;4976940;28;20532;-83
2022/11/04 04:51:42;;;;;;;3.20;2.73;;;10.90;97.30;;;;;;4976809;28;21135;-82
2022/11/04 04:54:08;;;;;;;6.50;3.10;;;11.00;97.30;;;;;;4976888;28;20206;-82
2022/11/04 04:56:33;;;;;;;3.20;2.67;;;11.00;97.30;;;;;;4977559;28;20452;-82
2022/11/04 04:58:59;;;;;;;4.40;3.03;;;11.00;97.30;;;;;;4991501;28;20190;-81
2022/11/04 05:01:24;;;;;;;3.70;3.30;;;11.00;97.30;;;;;;4986537;28;20186;-82
2022/11/04 05:03:50;;;;;;;6.73;1.97;;;11.00;97.30;;;;;;4975615;28;20190;-82
2022/11/04 05:06:15;;;;;;;4.90;2.27;;;11.00;97.30;;;;;;4975949;28;20283;-82
2022/11/04 05:08:41;;;;;;;1.60;1.53;;;11.00;97.30;;;;;;4975856;28;20276;-82
2022/11/04 05:11:06;;;;;;;8.23;3.83;;;11.00;97.30;;;;;;4975428;28;20326;-82
2022/11/04 05:13:32;;;;;;;2.07;1.93;;;11.10;97.30;;;;;;4976578;28;20273;-82
2022/11/04 05:16:04;;;;;;;3.67;2.80;;;11.10;97.30;;;;;;4975759;28;20360;-82
2022/11/04 05:18:30;;;;;;;4.80;4.10;;;11.10;97.30;;;;;;4973077;28;20780;-82
2022/11/04 05:20:55;;;;;;;6.87;3.60;;;11.10;97.30;;;;;;4981621;28;20439;-83
2022/11/04 05:23:21;;;;;;;4.93;2.40;;;11.10;97.30;;;;;;4981856;28;20194;-82
2022/11/04 05:25:46;;;;;;;4.60;2.53;;;11.10;97.30;;;;;;4973917;28;20221;-81
2022/11/04 05:28:12;;;;;;;2.23;2.03;;;11.10;97.30;;;;;;4976345;28;20182;-82
2022/11/04 05:30:38;;;;;;;3.23;2.67;;;11.10;97.30;;;;;;4993442;28;20178;-82
2022/11/04 05:33:04;;;;;;;2.47;2.27;;;11.10;97.30;;;;;;4974733;28;20186;-82
2022/11/04 05:35:30;;;;;;;9.03;5.30;;;11.10;97.30;;;;;;4975738;28;20436;-83
2022/11/04 05:37:56;;;;;;;13.43;6.33;;;11.20;97.30;;;;;;4975202;28;20432;-82
2022/11/04 05:40:22;;;;;;;3.00;2.27;;;11.20;97.30;;;;;;4976511;28;20190;-82
2022/11/04 05:42:47;;;;;;;6.73;3.60;;;11.30;97.30;;;;;;4974783;28;20728;-81
2022/11/04 05:45:13;;;;;;;3.10;2.27;;;11.20;97.30;;;;;;4974940;28;20595;-83
2022/11/04 05:47:39;;;;;;;2.60;2.40;;;11.20;97.30;;;;;;4974583;28;20216;-82
2022/11/04 05:50:05;;;;;;;8.60;2.53;;;11.20;97.30;;;;;;4976644;28;20201;-82
2022/11/04 05:52:30;;;;;;;2.80;2.60;;;11.20;97.30;;;;;;4993789;28;20320;-82
2022/11/04 05:54:56;;;;;;;2.50;2.30;;;11.20;97.30;;;;;;4974866;28;20511;-82
2022/11/04 05:57:22;;;;;;;4.57;3.43;;;11.30;97.30;;;;;;4990508;28;20190;-81
2022/11/04 05:59:47;;;;;;;3.40;2.73;;;11.30;97.30;;;;;;4976664;28;20191;-80
2022/11/04 06:02:15;;;;;;;3.27;3.07;;;11.40;97.30;;;;;;4992884;28;20975;-81
2022/11/04 06:04:40;;;;;;;3.80;3.03;;;11.40;97.30;;;;;;4992198;28;20702;-82
2022/11/04 06:07:06;;;;;;;9.30;4.13;;;11.50;97.30;;;;;;4972111;28;20466;-82
2022/11/04 06:09:38;;;;;;;3.20;2.10;;;11.40;97.30;;;;;;4973106;28;20178;-82
2022/11/04 06:12:08;;;;;;;2.60;2.40;;;11.40;97.30;;;;;;4975554;28;20240;-81
2022/11/04 06:14:34;;;;;;;4.43;3.63;;;11.40;97.30;;;;;;4967271;28;20437;-82
2022/11/04 06:16:59;;;;;;;9.00;4.40;;;11.30;97.30;;;;;;4973531;28;20445;-82
2022/11/04 06:19:25;;;;;;;10.90;2.97;;;11.30;97.30;;;;;;4973150;28;20209;-82
2022/11/04 06:21:51;;;;;;;3.93;3.07;;;11.30;97.30;;;;;;4976122;28;20261;-82
2022/11/04 06:24:16;;;;;;;9.20;2.10;;;11.20;97.30;;;;;;4994196;28;20238;-82
2022/11/04 06:26:42;;;;;;;3.00;1.70;;;11.10;97.30;;;;;;4993779;28;20568;-82
2022/11/04 06:29:08;;;;;;;2.40;2.13;;;11.10;97.30;;;;;;4994648;28;20529;-81
2022/11/04 06:31:34;;;;;;;2.43;2.20;;;11.00;97.30;;;;;;4976395;28;20178;-82
2022/11/04 06:33:59;;;;;;;4.73;2.47;;;11.00;97.30;;;;;;4977029;28;20448;-82
2022/11/04 06:36:25;;;;;;;4.33;3.43;;;11.00;97.30;;;;;;4980063;28;20186;-82
2022/11/04 06:38:51;;;;;;;7.43;2.47;;;10.90;97.30;;;;;;4977295;28;20178;-80
2022/11/04 06:41:17;;;;;;;5.80;3.50;;;10.90;97.30;;;;;;4980273;28;20663;-81
2022/11/04 06:43:42;;;;;;;7.00;3.93;;;10.90;97.30;;;;;;4980313;28;20437;-81
2022/11/04 06:46:28;;;;;;;3.50;2.40;;;10.90;97.30;;;;;;4980862;28;20646;-81
2022/11/04 06:48:59;;;;;;;5.93;3.53;;;10.90;97.30;;;;;;4979002;28;20174;-81
2022/11/04 06:51:24;;;;;;;4.43;3.73;;;10.90;97.30;;;;;;4997135;28;20428;-81
2022/11/04 06:53:50;;;;;;;2.67;2.47;;;10.90;97.30;;;;;;4997460;28;20433;-81
2022/11/04 06:56:16;;;;;;;6.60;2.73;;;10.90;97.30;;;;;;4997478;28;20178;-82
2022/11/04 06:58:41;;;;;;;4.30;3.20;;;10.90;97.30;;;;;;4993840;28;20204;-82
2022/11/04 07:01:07;;;;;;;3.97;2.70;;;10.90;97.30;;;;;;4976394;28;20262;-82
2022/11/04 07:03:33;;;;;;;5.70;3.47;;;10.90;97.30;;;;;;4975265;28;20473;-82
2022/11/04 07:05:58;;;;;;;4.73;3.60;;;10.90;97.30;;;;;;4994324;28;20198;-82
2022/11/04 07:08:24;;;;;;;2.23;2.03;;;10.90;97.30;;;;;;4977627;28;20241;-82
2022/11/04 07:10:49;;;;;;;1.80;1.70;;;11.00;97.30;;;;;;4978372;28;20640;-83
2022/11/04 07:13:16;;;;;;;2.83;2.63;;;11.00;97.30;;;;;;4995529;28;20181;-83
2022/11/04 07:15:42;;;;;;;6.17;2.80;;;11.00;97.30;;;;;;4978335;28;20268;-82
2022/11/04 07:18:07;;;;;;;2.33;2.13;;;10.90;97.30;;;;;;4978197;28;20420;-82
2022/11/04 07:20:35;;;;;;;3.80;2.90;;;10.90;97.30;;;;;;4978029;28;20186;-82
2022/11/04 07:23:00;;;;;;;3.90;3.70;;;10.90;97.30;;;;;;4978433;28;20178;-82
2022/11/04 07:25:26;;;;;;;6.63;3.83;;;10.90;97.30;;;;;;4977778;28;20484;-82
2022/11/04 07:27:51;;;;;;;4.17;3.37;;;10.90;97.30;;;;;;4993785;28;20555;-82
2022/11/04 07:32:45;;;;;;;3.17;2.20;;;10.90;97.30;;;;;;5012755;28;20578;-86
2022/11/04 07:35:12;;;;;;;3.57;3.10;;;10.90;97.30;;;;;;5014267;28;20474;-86
2022/11/04 07:37:37;;;;;;;4.67;1.97;;;10.90;97.30;;;;;;5014399;28;20496;-86
2022/11/04 07:40:04;;;;;;;3.27;2.60;;;10.90;97.30;;;;;;5013862;28;20424;-86
2022/11/04 07:42:30;;;;;;;2.80;2.53;;;10.90;97.30;;;;;;4996437;28;20250;-86
2022/11/04 07:44:56;;;;;;;4.20;2.60;;;11.00;97.30;;;;;;5013904;28;20904;-86
2022/11/04 07:47:21;;;;;;;1.70;1.60;;;11.00;97.30;;;;;;4995667;28;20213;-86
2022/11/04 07:49:47;;;;;;;3.90;1.63;;;11.00;97.30;;;;;;5012007;28;20497;-89
2022/11/04 07:52:12;;;;;;;9.10;3.73;;;11.00;97.30;;;;;;5021168;28;20173;-88
2022/11/04 07:54:38;;;;;;;6.60;2.37;;;11.00;97.30;;;;;;5021000;28;20177;-87
2022/11/04 07:57:03;;;;;;;4.07;2.17;;;11.00;97.30;;;;;;4997013;28;20185;-87
2022/11/04 07:59:29;;;;;;;6.10;2.63;;;11.00;97.30;;;;;;4995774;28;20601;-86
2022/11/04 08:01:54;;;;;;;3.43;2.50;;;11.00;97.30;;;;;;4996511;28;20637;-86
2022/11/04 08:04:20;;;;;;;4.33;3.23;;;11.00;97.30;;;;;;4996630;28;20180;-86
2022/11/04 08:06:45;;;;;;;3.10;2.53;;;11.00;97.30;;;;;;4997030;28;20620;-86
2022/11/04 08:09:11;;;;;;;7.00;2.50;;;11.00;97.30;;;;;;5013583;28;20818;-86
2022/11/04 08:11:37;;;;;;;2.17;2.00;;;11.00;97.30;;;;;;4995079;28;20566;-86
2022/11/04 08:14:03;;;;;;;1.63;1.57;;;11.00;97.30;;;;;;4995287;28;20178;-85
2022/11/04 08:16:29;;;;;;;4.73;2.20;;;11.00;97.30;;;;;;4995269;28;20177;-86
2022/11/04 08:19:00;;;;;;;1.63;1.60;;;11.00;97.30;;;;;;4995456;28;20459;-87
2022/11/04 08:21:26;;;;;;;1.73;1.63;;;11.00;97.30;;;;;;4995526;28;20432;-86
2022/11/04 08:23:52;;;;;;;12.60;2.67;;;11.00;97.30;;;;;;4995416;28;20503;-86
2022/11/04 08:26:19;;;;;;;1.77;1.67;;;11.00;97.30;;;;;;5012775;28;20543;-86
2022/11/04 08:28:45;;;;;;;4.97;3.20;;;11.00;97.30;;;;;;4995052;28;20197;-86
2022/11/04 08:31:15;;;;;;;2.43;1.43;;;11.00;97.30;;;;;;4995086;28;20470;-86
2022/11/04 08:33:41;;;;;;;4.10;2.07;;;11.00;97.30;;;;;;5013102;28;20641;-86
2022/11/04 08:36:14;;;;;;;1.30;1.20;;;11.00;97.30;;;;;;4996198;28;20427;-86
2022/11/04 08:38:40;;;;;;;4.07;2.43;;;11.00;97.30;;;;;;4996357;28;20283;-86
2022/11/04 08:41:07;;;;;;;1.53;1.43;;;11.00;97.30;;;;;;4996448;28;20515;-86
2022/11/04 08:43:34;;;;;;;3.90;1.93;;;11.00;97.30;;;;;;4996046;28;20173;-87
2022/11/04 08:46:00;;;;;;;1.93;1.87;;;11.00;97.30;;;;;;5013693;28;20484;-86
2022/11/04 08:48:26;;;;;;;1.83;1.60;;;11.00;97.30;;;;;;4995137;28;20907;-85
2022/11/04 08:50:54;;;;;;;2.80;2.60;;;11.00;97.30;;;;;;4994477;28;20424;-86
2022/11/04 08:53:20;;;;;;;1.60;1.50;;;11.00;97.30;;;;;;4996612;28;20470;-86
2022/11/04 08:55:47;;;;;;;2.77;2.50;;;11.00;97.30;;;;;;4998547;28;20417;-86
2022/11/04 08:58:12;;;;;;;5.13;2.40;;;11.00;97.30;;;;;;5001671;28;20431;-86
2022/11/04 09:00:38;;;;;;;3.00;1.90;;;11.00;97.30;;;;;;5000303;28;20432;-87
2022/11/04 09:03:04;;;;;;;2.43;1.93;;;11.10;97.30;;;;;;5001132;28;20177;-86
2022/11/04 09:05:30;;;;;;;1.30;1.20;;;11.10;97.30;;;;;;4995435;28;20291;-86
2022/11/04 09:07:59;;;;;;;2.40;2.20;;;11.10;97.30;;;;;;4994826;28;20310;-86
2022/11/04 09:10:25;;;;;;;1.10;1.00;;;11.20;97.30;;;;;;4994739;28;20436;-86
2022/11/04 09:12:51;;;;;;;1.40;1.30;;;11.20;97.30;;;;;;4994881;28;20418;-86
2022/11/04 09:15:16;;;;;;;1.63;1.60;;;11.30;97.30;;;;;;4994592;28;20169;-86
2022/11/04 09:17:43;;;;;;;3.53;2.30;;;11.40;97.30;;;;;;5012061;28;20173;-86
2022/11/04 09:20:09;;;;;;;2.13;1.73;;;11.40;97.30;;;;;;4994625;28;20255;-86
2022/11/04 09:22:34;;;;;;;2.93;2.20;;;11.40;97.30;;;;;;4994408;28;20408;-86
2022/11/04 09:25:00;;;;;;;2.57;2.20;;;11.40;97.30;;;;;;5011994;28;20824;-87
2022/11/04 09:27:26;;;;;;;1.13;1.03;;;11.40;97.30;;;;;;4994293;28;20205;-87
2022/11/04 09:29:51;;;;;;;1.60;1.50;;;11.50;97.30;;;;;;4994298;28;20447;-86
2022/11/04 09:32:17;;;;;;;1.73;1.70;;;11.50;97.30;;;;;;4993839;28;20221;-86
2022/11/04 09:34:42;;;;;;;1.40;1.30;;;11.50;97.30;;;;;;4994117;28;20554;-86
2022/11/04 09:37:08;;;;;;;1.00;0.90;;;11.50;97.30;;;;;;5012281;28;20180;-87
2022/11/04 09:39:33;;;;;;;1.63;1.20;;;11.50;97.30;;;;;;4994299;28;20380;-86
2022/11/04 09:42:05;;;;;;;2.60;1.63;;;11.50;97.30;;;;;;4994225;28;20560;-86
2022/11/04 09:44:47;;;;;;;1.77;1.67;;;11.60;97.30;;;;;;4994190;28;20185;-87
2022/11/04 09:47:13;;;;;;;1.57;1.50;;;11.60;97.30;;;;;;5011518;28;20471;-87
2022/11/04 09:49:43;;;;;;;1.70;1.60;;;11.50;97.30;;;;;;4993699;28;20444;-87
2022/11/04 09:52:22;;;;;;;1.47;1.40;;;11.50;97.30;;;;;;4993956;28;20584;-86
2022/11/04 09:54:58;;;;;;;1.53;1.50;;;11.50;97.30;;;;;;4994009;28;20463;-86
2022/11/04 09:57:24;;;;;;;1.50;1.40;;;11.50;97.30;;;;;;4993841;28;20416;-87
2022/11/04 09:59:49;;;;;;;1.17;1.17;;;11.40;97.30;;;;;;5011022;28;20784;-86
2022/11/04 10:02:24;;;;;;;1.20;1.10;;;11.40;97.30;;;;;;4993821;28;20420;-86
2022/11/04 10:05:17;;;;;;;1.67;1.57;;;11.40;97.30;;;;;;4993755;28;20314;-85
2022/11/04 10:08:27;;;;;;;1.90;1.27;;;11.40;97.30;;;;;;4993521;28;20602;-87
2022/11/04 10:11:06;;;;;;;1.10;1.00;;;11.30;97.30;;;;;;4993374;28;20801;-87
2022/11/04 10:13:40;;;;;;;4.40;1.97;;;11.30;97.30;;;;;;4993263;28;20507;-87
2022/11/04 10:16:27;;;;;;;1.13;1.03;;;11.30;97.30;;;;;;4992938;28;20431;-86
2022/11/04 10:19:08;;;;;;;2.47;2.27;;;11.40;97.30;;;;;;4993394;28;20448;-87
2022/11/04 10:21:45;;;;;;;2.37;2.13;;;11.30;97.30;;;;;;5010894;28;20793;-87
2022/11/04 10:24:19;;;;;;;1.20;1.10;;;11.40;97.30;;;;;;4993258;28;20918;-86
2022/11/04 10:27:11;;;;;;;6.73;2.67;;;11.30;97.30;;;;;;4993284;28;20463;-86
2022/11/04 10:29:50;;;;;;;4.00;1.63;;;11.30;97.30;;;;;;4988208;28;20443;-87
2022/11/04 10:32:29;;;;;;;2.50;1.90;;;11.30;97.30;;;;;;4992618;28;20513;-87
2022/11/04 10:34:56;;;;;;;1.57;1.00;;;11.30;97.30;;;;;;5010805;28;20412;-87
2022/11/04 10:37:24;;;;;;;3.33;2.20;;;11.30;97.30;;;;;;4993293;28;20926;-87
2022/11/04 10:39:52;;;;;;;5.03;2.00;;;11.30;97.30;;;;;;4993151;28;20559;-87
2022/11/04 10:42:21;;;;;;;1.47;1.47;;;11.30;97.30;;;;;;4993392;28;20447;-87
2022/11/04 10:44:49;;;;;;;1.00;0.90;;;11.30;97.30;;;;;;4993522;28;20431;-86
2022/11/04 10:47:21;;;;;;;1.57;1.47;;;11.20;97.30;;;;;;4993198;28;20459;-86
2022/11/04 10:50:14;;;;;;;1.37;1.27;;;11.30;97.30;;;;;;5011021;28;20440;-86
2022/11/04 10:52:40;;;;;;;1.50;1.23;;;11.20;97.30;;;;;;4993414;28;20514;-86
2022/11/04 10:55:42;;;;;;;1.20;1.07;;;11.20;97.30;;;;;;4993150;28;20424;-87
2022/11/04 10:58:46;;;;;;;1.97;1.87;;;11.20;97.30;;;;;;4952043;28;20428;-87
2022/11/04 11:01:33;;;;;;;1.20;1.00;;;11.20;97.30;;;;;;4895623;29;20607;-87
2022/11/04 11:04:00;;;;;;;0.90;0.90;;;11.20;97.30;;;;;;4990010;28;20452;-87
2022/11/04 11:06:28;;;;;;;1.93;1.53;;;11.20;97.30;;;;;;4992809;28;21001;-86
2022/11/04 11:09:13;;;;;;;1.27;1.17;;;11.10;97.30;;;;;;4992822;28;20861;-87
2022/11/04 11:11:41;;;;;;;1.20;1.10;;;11.10;97.30;;;;;;4993127;28;20554;-87
2022/11/04 11:14:31;;;;;;;1.37;1.27;;;11.10;97.30;;;;;;4993486;28;20420;-87
2022/11/04 11:17:23;;;;;;;1.43;1.40;;;11.10;97.30;;;;;;4998216;28;20413;-88
2022/11/04 11:19:54;;;;;;;2.23;1.70;;;11.10;97.30;;;;;;5012020;28;20439;-87
2022/11/04 11:22:33;;;;;;;1.10;1.00;;;11.10;97.30;;;;;;5018460;28;20426;-88
2022/11/04 11:25:28;;;;;;;1.23;1.20;;;11.10;97.30;;;;;;5019704;28;20416;-87
2022/11/04 11:28:06;;;;;;;1.47;1.40;;;11.00;97.30;;;;;;5019934;28;20444;-88
2022/11/04 11:30:40;;;;;;;1.60;1.50;;;11.00;97.30;;;;;;4996826;28;20495;-87
2022/11/04 11:33:17;;;;;;;2.87;1.23;;;11.10;97.30;;;;;;4996187;28;20477;-87
2022/11/04 11:35:55;;;;;;;2.40;1.23;;;11.00;97.30;;;;;;4996164;28;20668;-87
2022/11/04 11:38:24;;;;;;;0.90;0.90;;;11.00;97.30;;;;;;5014230;28;20402;-87
2022/11/04 11:40:56;;;;;;;1.30;1.20;;;11.00;97.30;;;;;;5013844;28;20406;-87
2022/11/04 11:43:28;;;;;;;1.40;1.30;;;11.00;97.30;;;;;;4996184;28;20978;-86
2022/11/04 11:45:56;;;;;;;1.00;0.90;;;11.00;97.30;;;;;;5013572;28;20478;-87
2022/11/04 11:48:28;;;;;;;1.03;0.93;;;10.90;97.30;;;;;;4995927;28;20456;-87
2022/11/04 11:50:59;;;;;;;1.33;1.33;;;10.90;97.30;;;;;;5005222;28;20439;-88
2022/11/04 11:53:28;;;;;;;1.53;1.10;;;10.90;97.30;;;;;;5038339;28;20424;-88
2022/11/04 11:56:05;;;;;;;1.20;1.10;;;10.90;97.30;;;;;;5021350;28;20474;-88
2022/11/04 11:58:41;;;;;;;3.30;1.63;;;10.90;97.30;;;;;;4999678;28;20439;-86
2022/11/04 12:01:45;;;;;;;1.33;1.23;;;10.90;97.30;;;;;;5013015;28;20416;-87
2022/11/04 12:04:12;;;;;;;1.77;1.67;;;10.90;97.30;;;;;;5009930;28;20562;-87
2022/11/04 12:06:51;;;;;;;1.53;1.43;;;10.90;97.30;;;;;;4995449;28;20471;-86
2022/11/04 12:09:29;;;;;;;1.70;1.60;;;10.90;97.30;;;;;;4995575;28;20448;-87
2022/11/04 12:12:29;;;;;;;1.50;1.40;;;10.90;97.30;;;;;;4995242;28;20416;-87
2022/11/04 12:15:21;;;;;;;1.10;1.00;;;10.90;97.30;;;;;;4995772;28;20431;-87
2022/11/04 12:18:20;;;;;;;1.00;0.90;;;10.90;97.30;;;;;;4995193;28;20466;-86
2022/11/04 12:21:10;;;;;;;1.87;1.77;;;10.90;97.30;;;;;;4994582;28;20455;-87
2022/11/04 12:24:30;;;;;;;9.13;1.13;;;10.90;97.30;;;;;;4995641;28;20432;-84
2022/11/04 12:27:41;;;;;;;1.10;1.00;;;10.90;97.30;;;;;;4898724;29;20461;-83
2022/11/04 12:31:01;;;;;;;1.97;1.87;;;10.90;97.30;;;;;;4894283;29;20809;-88
2022/11/04 12:33:52;;;;;;;1.83;1.73;;;10.90;97.30;;;;;;4879737;29;20457;-89
2022/11/04 12:37:02;;;;;;;1.27;1.20;;;10.90;97.30;;;;;;4878608;29;20433;-88
2022/11/04 12:40:20;;;;;;;1.00;0.90;;;11.00;97.30;;;;;;4856163;29;20447;-89
2022/11/04 12:43:30;;;;;;;1.40;1.20;;;11.00;97.30;;;;;;4840429;29;20427;-88
2022/11/04 12:46:31;;;;;;;1.27;1.20;;;11.10;97.30;;;;;;4894512;29;20556;-88
2022/11/04 12:49:17;;;;;;;1.50;1.40;;;11.10;97.30;;;;;;4877320;29;20503;-88
2022/11/04 12:52:19;;;;;;;1.57;1.20;;;11.20;97.30;;;;;;4893981;29;20432;-89
2022/11/04 12:55:04;;;;;;;1.93;1.80;;;11.20;97.30;;;;;;4961498;28;20420;-90
2022/11/04 12:57:44;;;;;;;0.90;0.90;;;11.30;97.30;;;;;;4986591;28;20423;-87
2022/11/04 13:00:17;;;;;;;3.40;1.63;;;11.30;97.30;;;;;;4994190;28;20519;-89
2022/11/04 13:02:55;;;;;;;1.07;1.00;;;11.30;97.30;;;;;;4995195;28;20519;-88
2022/11/04 13:05:49;;;;;;;6.20;1.37;;;11.30;97.30;;;;;;4995024;28;20503;-89
2022/11/04 13:08:23;;;;;;;1.03;0.93;;;11.30;97.30;;;;;;4995006;28;20412;-89
2022/11/04 13:11:00;;;;;;;1.13;1.03;;;11.30;97.30;;;;;;4990034;28;20423;-89
2022/11/04 13:13:34;;;;;;;1.10;1.00;;;11.40;97.30;;;;;;4984291;28;20543;-86
2022/11/04 13:16:06;;;;;;;1.13;1.03;;;11.40;97.30;;;;;;4990411;28;20432;-89
2022/11/04 13:18:36;;;;;;;1.87;1.40;;;11.40;97.30;;;;;;4993362;28;20825;-87
2022/11/04 13:21:08;;;;;;;1.67;1.57;;;11.30;97.30;;;;;;4988529;28;20566;-87
2022/11/04 13:23:58;;;;;;;1.00;0.90;;;11.30;97.30;;;;;;4992623;28;20510;-87
2022/11/04 13:26:24;;;;;;;1.43;1.37;;;11.40;97.30;;;;;;4948355;28;20457;-88
2022/11/04 13:29:03;;;;;;;1.00;1.00;;;11.40;97.30;;;;;;4990923;28;20444;-86
2022/11/04 13:32:00;;;;;;;1.83;1.73;;;11.40;97.30;;;;;;4989386;28;20255;-85
2022/11/04 13:38:17;;;;;;;5.70;1.27;;;11.40;97.30;;;;;;4893658;29;20432;-87
2022/11/04 13:41:38;;;;;;;1.47;1.37;;;11.40;97.30;;;;;;4970890;28;20498;-86
2022/11/04 13:44:58;;;;;;;1.93;1.83;;;11.40;97.30;;;;;;4938520;28;20414;-86
2022/11/04 13:51:00;;;;;;;1.20;1.00;;;11.40;97.30;;;;;;5045141;22;20503;-86
2022/11/04 13:53:44;;;;;;;2.50;2.30;;;11.40;97.30;;;;;;5003308;28;20408;-86
2022/11/04 13:56:26;;;;;;;1.00;0.90;;;11.40;97.30;;;;;;5002891;28;20421;-86
2022/11/04 13:58:55;;;;;;;2.20;1.00;;;11.30;97.30;;;;;;5000593;28;20496;-85